Time;durP1;ratioP1;P1;durP2;ratioP2;P2;SDS_P1;SDS_P2;PMS_P1;PMS_P2;Temp;Humidity;BMP_temperature;BMP_pressure;BME280_temperature;BME280_humidity;BME280_pressure;Samples;Min_cycle;Max_cycle;Signal;HPM_P1;HPM_P2
2022/05/05 00:00:14;;;;;;;10.45;5.10;;;11.80;92.20;;;;;;5088131;28;20098;-40
2022/05/05 00:02:40;;;;;;;6.97;4.35;;;11.80;92.20;;;;;;5099956;28;20844;-42
2022/05/05 00:05:05;;;;;;;7.38;4.55;;;11.80;92.20;;;;;;5089612;28;20042;-43
2022/05/05 00:07:31;;;;;;;8.20;4.38;;;11.90;92.30;;;;;;5096553;28;20031;-41
2022/05/05 00:09:57;;;;;;;7.40;4.28;;;11.90;92.30;;;;;;5092022;28;20051;-42
2022/05/05 00:15:07;;;;;;;7.65;4.68;;;11.90;92.40;;;;;;5091185;28;20087;-42
2022/05/05 00:17:34;;;;;;;6.47;4.30;;;11.90;92.40;;;;;;5093633;28;20071;-42
2022/05/05 00:19:59;;;;;;;7.03;4.85;;;11.90;92.40;;;;;;5094132;28;20027;-41
2022/05/05 00:22:25;;;;;;;6.72;4.43;;;11.90;92.50;;;;;;5090730;28;20016;-41
2022/05/05 00:24:51;;;;;;;7.07;4.43;;;11.90;92.50;;;;;;5096306;28;20071;-41
2022/05/05 00:27:16;;;;;;;7.70;4.97;;;11.90;92.80;;;;;;5088540;28;20024;-40
2022/05/05 00:29:42;;;;;;;9.30;4.85;;;11.90;92.50;;;;;;5085614;28;20081;-42
2022/05/05 00:32:08;;;;;;;8.50;4.00;;;11.90;92.50;;;;;;5106466;28;20460;-42
2022/05/05 00:34:33;;;;;;;5.32;4.13;;;11.90;92.50;;;;;;5095751;28;20031;-42
2022/05/05 00:36:59;;;;;;;4.85;4.35;;;11.90;92.50;;;;;;5107545;28;20170;-42
2022/05/05 00:39:24;;;;;;;8.55;4.68;;;11.90;92.50;;;;;;5094412;28;20027;-43
2022/05/05 00:41:51;;;;;;;8.25;4.30;;;11.90;92.70;;;;;;5107465;28;20030;-38
2022/05/05 00:44:17;;;;;;;6.18;4.20;;;11.80;92.70;;;;;;5093482;28;20063;-40
2022/05/05 00:46:50;;;;;;;7.32;5.03;;;11.80;92.80;;;;;;5107083;28;20055;-38
2022/05/05 00:49:16;;;;;;;9.43;5.40;;;11.80;93.00;;;;;;5099454;28;20500;-42
2022/05/05 00:51:41;;;;;;;9.75;4.72;;;11.80;93.00;;;;;;5106743;28;20112;-42
2022/05/05 00:54:07;;;;;;;8.85;4.97;;;11.80;93.10;;;;;;5096888;28;20017;-41
2022/05/05 00:56:33;;;;;;;6.30;4.15;;;11.70;93.10;;;;;;5102890;28;20124;-41
2022/05/05 00:59:01;;;;;;;8.00;4.22;;;11.70;93.20;;;;;;5099595;28;20047;-43
2022/05/05 01:01:27;;;;;;;9.65;4.35;;;11.60;93.30;;;;;;5100814;28;20024;-42
2022/05/05 01:03:53;;;;;;;6.95;4.50;;;11.60;93.40;;;;;;5101962;28;20510;-42
2022/05/05 01:06:19;;;;;;;7.72;4.90;;;11.60;93.50;;;;;;5098124;28;20024;-42
2022/05/05 01:08:44;;;;;;;6.65;4.93;;;11.50;93.80;;;;;;5104431;28;20020;-42
2022/05/05 01:11:10;;;;;;;9.50;4.90;;;11.50;93.60;;;;;;5095650;28;20030;-41
2022/05/05 01:13:40;;;;;;;6.57;5.28;;;11.40;93.70;;;;;;5104216;28;20060;-41
2022/05/05 01:16:07;;;;;;;8.50;4.85;;;11.40;93.80;;;;;;5095336;28;20051;-41
2022/05/05 01:18:33;;;;;;;7.53;4.45;;;11.40;93.80;;;;;;5104487;28;20145;-41
2022/05/05 01:20:59;;;;;;;9.32;4.90;;;11.30;93.90;;;;;;5095165;28;20476;-42
2022/05/05 01:23:24;;;;;;;7.57;4.97;;;11.30;94.00;;;;;;5106469;28;20028;-41
2022/05/05 01:28:42;;;;;;;8.48;4.60;;;11.20;94.10;;;;;;5105945;28;20077;-42
2022/05/05 01:31:07;;;;;;;8.15;4.97;;;11.20;94.20;;;;;;5093144;28;20019;-41
2022/05/05 01:33:33;;;;;;;6.68;4.85;;;11.10;94.30;;;;;;5105165;28;20015;-43
2022/05/05 01:35:59;;;;;;;6.93;4.20;;;11.10;94.40;;;;;;5093136;28;20504;-43
2022/05/05 01:38:30;;;;;;;5.47;4.25;;;11.10;94.40;;;;;;5105753;28;20034;-42
2022/05/05 01:40:55;;;;;;;7.82;4.93;;;11.00;94.50;;;;;;5094381;28;20028;-41
2022/05/05 01:43:22;;;;;;;6.90;4.57;;;11.10;94.50;;;;;;5104641;28;20058;-42
2022/05/05 01:45:48;;;;;;;7.35;4.72;;;11.00;94.50;;;;;;5096393;28;20482;-41
2022/05/05 01:48:13;;;;;;;7.95;4.80;;;11.00;94.50;;;;;;5102515;28;20444;-41
2022/05/05 01:50:39;;;;;;;9.25;4.90;;;11.00;94.60;;;;;;5098282;28;20030;-41
2022/05/05 01:53:05;;;;;;;7.70;4.90;;;10.90;94.60;;;;;;5100099;28;20026;-42
2022/05/05 01:55:32;;;;;;;7.60;4.57;;;10.90;94.90;;;;;;5101213;28;20108;-41
2022/05/05 01:57:59;;;;;;;7.85;5.03;;;10.90;94.60;;;;;;5097016;28;20538;-41
2022/05/05 02:00:25;;;;;;;7.60;4.28;;;10.90;94.60;;;;;;5103218;28;20127;-42
2022/05/05 02:02:51;;;;;;;6.55;4.70;;;10.80;94.60;;;;;;5083996;28;20019;-42
2022/05/05 02:05:17;;;;;;;8.65;4.93;;;10.80;94.60;;;;;;5103995;28;20030;-42
2022/05/05 02:07:43;;;;;;;9.98;5.22;;;10.80;94.60;;;;;;5093534;28;20419;-41
2022/05/05 02:10:14;;;;;;;7.55;5.10;;;10.70;94.70;;;;;;5105443;28;20028;-42
2022/05/05 02:12:40;;;;;;;9.93;5.00;;;10.70;94.70;;;;;;5093268;28;20023;-43
2022/05/05 02:15:07;;;;;;;8.60;5.00;;;10.60;94.80;;;;;;5105660;28;20126;-42
2022/05/05 02:17:34;;;;;;;5.18;4.60;;;10.60;94.80;;;;;;5091713;28;20017;-42
2022/05/05 02:20:00;;;;;;;7.22;5.13;;;10.50;94.90;;;;;;5105624;28;20127;-43
2022/05/05 02:22:26;;;;;;;7.18;4.93;;;10.50;94.90;;;;;;5092694;28;20051;-41
2022/05/05 02:24:52;;;;;;;5.90;4.97;;;10.40;95.00;;;;;;5105774;28;20475;-42
2022/05/05 02:27:18;;;;;;;7.95;5.07;;;10.40;95.00;;;;;;5095378;28;20036;-42
2022/05/05 02:29:44;;;;;;;6.80;4.68;;;10.30;95.10;;;;;;5101950;28;20028;-40
2022/05/05 02:32:10;;;;;;;9.68;5.30;;;10.40;95.10;;;;;;5098375;28;20020;-42
2022/05/05 02:34:35;;;;;;;8.35;4.85;;;10.40;95.20;;;;;;5099786;28;20043;-42
2022/05/05 02:39:48;;;;;;;7.53;4.20;;;10.30;95.30;;;;;;5100731;28;20562;-43
2022/05/05 02:42:14;;;;;;;7.88;4.57;;;10.30;95.40;;;;;;5099709;28;20434;-42
2022/05/05 02:44:39;;;;;;;9.48;4.88;;;10.20;95.40;;;;;;5097961;28;20080;-41
2022/05/05 02:47:05;;;;;;;6.72;4.30;;;10.20;95.40;;;;;;5107848;28;20050;-42
2022/05/05 02:49:31;;;;;;;6.65;5.20;;;10.20;95.50;;;;;;5092862;28;20028;-41
2022/05/05 02:51:57;;;;;;;6.80;4.65;;;10.10;95.60;;;;;;5091573;28;20020;-42
2022/05/05 02:57:06;;;;;;;6.97;4.55;;;10.10;95.60;;;;;;5090710;28;20073;-42
2022/05/05 02:59:32;;;;;;;6.97;4.85;;;10.00;95.60;;;;;;5100109;28;20060;-42
2022/05/05 03:01:58;;;;;;;7.18;4.95;;;10.00;95.70;;;;;;5089852;28;20031;-42
2022/05/05 03:04:23;;;;;;;9.15;5.13;;;9.90;95.80;;;;;;5100664;28;20016;-43
2022/05/05 03:06:49;;;;;;;8.05;4.60;;;10.00;95.90;;;;;;5089301;28;20097;-42
2022/05/05 03:09:14;;;;;;;7.80;4.95;;;10.00;96.00;;;;;;5101480;28;20023;-42
2022/05/05 03:11:40;;;;;;;6.30;5.10;;;9.90;96.10;;;;;;5088745;28;20075;-45
2022/05/05 03:14:06;;;;;;;7.97;5.40;;;9.90;96.10;;;;;;5100969;28;20471;-43
2022/05/05 03:16:32;;;;;;;7.20;5.35;;;9.90;96.20;;;;;;5088780;28;20059;-42
2022/05/05 03:18:57;;;;;;;7.20;4.47;;;9.90;96.20;;;;;;5098225;28;20055;-42
2022/05/05 03:21:23;;;;;;;6.45;4.97;;;9.80;96.20;;;;;;5092266;28;20490;-42
2022/05/05 03:23:48;;;;;;;10.88;5.63;;;9.80;96.30;;;;;;5095392;28;20072;-42
2022/05/05 03:26:14;;;;;;;7.45;5.60;;;9.80;96.30;;;;;;5095117;28;20024;-43
2022/05/05 03:28:40;;;;;;;9.30;5.20;;;9.80;96.40;;;;;;5092595;28;20727;-41
2022/05/05 03:31:06;;;;;;;8.35;5.32;;;9.80;96.40;;;;;;5096714;28;20118;-42
2022/05/05 03:33:32;;;;;;;9.32;5.25;;;9.80;96.50;;;;;;5090495;28;20016;-42
2022/05/05 03:35:58;;;;;;;6.72;4.95;;;9.80;96.60;;;;;;5099640;28;20689;-42
2022/05/05 03:38:24;;;;;;;7.43;4.80;;;9.70;96.50;;;;;;5088933;28;20030;-42
2022/05/05 03:40:51;;;;;;;7.70;5.07;;;9.70;96.50;;;;;;5100797;28;20131;-41
2022/05/05 03:43:20;;;;;;;5.78;4.97;;;9.70;96.60;;;;;;5088838;28;20540;-42
2022/05/05 03:45:45;;;;;;;6.30;4.75;;;9.70;96.60;;;;;;5099914;28;20541;-41
2022/05/05 03:48:11;;;;;;;7.47;4.32;;;9.70;96.60;;;;;;5088837;28;20021;-41
2022/05/05 03:50:36;;;;;;;6.72;4.90;;;9.60;96.60;;;;;;5089875;28;20024;-42
2022/05/05 03:53:02;;;;;;;7.82;4.90;;;9.60;96.60;;;;;;5088970;28;20463;-41
2022/05/05 03:55:29;;;;;;;8.27;5.35;;;9.60;96.60;;;;;;5095620;28;20036;-42
2022/05/05 03:57:54;;;;;;;7.22;4.55;;;9.50;96.70;;;;;;5108041;28;20026;-42
2022/05/05 04:00:21;;;;;;;9.75;4.50;;;9.50;96.70;;;;;;5098303;28;20052;-42
2022/05/05 04:03:30;;;;;;;8.00;5.25;;;9.50;96.60;;;;;;5105961;28;20076;-42
2022/05/05 04:05:33;;;;;;;7.35;5.18;;;9.50;96.70;;;;;;5097535;28;20627;-42
2022/05/05 04:08:00;;;;;;;9.23;5.57;;;9.60;96.70;;;;;;5105705;28;20466;-41
2022/05/05 04:10:25;;;;;;;5.53;4.88;;;9.60;96.80;;;;;;5100138;28;20035;-42
2022/05/05 04:12:51;;;;;;;9.63;5.45;;;9.60;96.80;;;;;;5102824;28;20027;-42
2022/05/05 04:15:16;;;;;;;9.60;6.30;;;9.60;96.80;;;;;;5102945;28;20464;-45
2022/05/05 04:17:42;;;;;;;7.82;5.13;;;9.60;96.80;;;;;;5099155;28;20023;-42
2022/05/05 04:20:08;;;;;;;7.28;5.18;;;9.60;96.90;;;;;;5105325;28;20069;-42
2022/05/05 04:22:33;;;;;;;9.65;5.50;;;9.70;96.90;;;;;;5096322;28;20032;-42
2022/05/05 04:24:59;;;;;;;8.93;5.47;;;9.70;97.00;;;;;;5105820;28;20080;-42
2022/05/05 04:27:24;;;;;;;11.15;5.65;;;9.70;97.00;;;;;;5095372;28;20022;-42
2022/05/05 04:29:50;;;;;;;8.57;5.38;;;9.70;97.10;;;;;;5107102;28;20043;-40
2022/05/05 04:32:16;;;;;;;11.68;5.93;;;9.80;97.10;;;;;;5094502;28;20036;-43
2022/05/05 04:34:41;;;;;;;10.82;5.45;;;9.80;97.20;;;;;;5106755;28;20028;-43
2022/05/05 04:37:07;;;;;;;9.85;5.80;;;9.90;97.20;;;;;;5094031;28;20505;-42
2022/05/05 04:39:32;;;;;;;12.93;5.40;;;9.90;97.20;;;;;;5107569;28;20115;-40
2022/05/05 04:41:58;;;;;;;9.48;5.40;;;10.00;97.20;;;;;;5095680;28;20631;-42
2022/05/05 04:44:23;;;;;;;11.10;5.82;;;10.00;97.20;;;;;;5105855;28;20051;-39
2022/05/05 04:46:49;;;;;;;10.85;5.85;;;10.10;97.20;;;;;;5097570;28;20749;-42
2022/05/05 04:49:14;;;;;;;10.10;5.68;;;10.10;97.10;;;;;;5101285;28;20100;-43
2022/05/05 04:51:40;;;;;;;8.43;5.22;;;10.20;97.10;;;;;;5093144;28;20386;-40
2022/05/05 04:54:06;;;;;;;6.90;5.43;;;10.20;97.10;;;;;;5093798;28;20048;-49
2022/05/05 04:56:31;;;;;;;7.15;5.13;;;10.30;97.10;;;;;;5090096;28;20122;-47
2022/05/05 04:58:57;;;;;;;6.05;5.20;;;10.30;97.10;;;;;;5096017;28;20056;-39
2022/05/05 05:01:22;;;;;;;10.73;5.32;;;10.30;97.10;;;;;;5088192;28;20783;-40
2022/05/05 05:03:48;;;;;;;9.23;5.55;;;10.30;97.10;;;;;;5098647;28;20114;-41
2022/05/05 05:06:13;;;;;;;7.32;4.78;;;10.30;97.10;;;;;;5087996;28;20540;-42
2022/05/05 05:08:42;;;;;;;7.65;5.45;;;10.40;97.10;;;;;;5097535;28;20131;-41
2022/05/05 05:11:08;;;;;;;8.25;4.97;;;10.40;97.00;;;;;;5086862;28;20520;-41
2022/05/05 05:13:33;;;;;;;7.32;4.70;;;10.40;97.10;;;;;;5099015;28;20012;-42
2022/05/05 05:15:59;;;;;;;9.57;5.07;;;10.30;97.10;;;;;;5087285;28;20032;-42
2022/05/05 05:18:24;;;;;;;7.68;5.43;;;10.40;97.10;;;;;;5099449;28;20458;-42
2022/05/05 05:20:50;;;;;;;11.23;5.65;;;10.40;97.20;;;;;;5086504;28;20036;-43
2022/05/05 05:23:16;;;;;;;6.78;5.07;;;10.40;97.20;;;;;;5096943;28;20020;-41
2022/05/05 05:25:41;;;;;;;10.32;5.43;;;10.40;97.20;;;;;;5088519;28;20020;-42
2022/05/05 05:28:07;;;;;;;7.38;5.88;;;10.40;97.20;;;;;;5094747;28;20027;-42
2022/05/05 05:30:36;;;;;;;8.05;5.60;;;10.40;97.20;;;;;;5090395;28;20036;-44
2022/05/05 05:33:01;;;;;;;8.18;5.22;;;10.40;97.20;;;;;;5092738;28;20016;-44
2022/05/05 05:35:27;;;;;;;8.68;5.05;;;10.40;97.30;;;;;;5092546;28;20401;-41
2022/05/05 05:37:52;;;;;;;7.75;4.90;;;10.50;97.20;;;;;;5089529;28;20544;-42
2022/05/05 05:40:21;;;;;;;7.78;5.20;;;10.50;97.30;;;;;;5095592;28;20032;-42
2022/05/05 05:42:46;;;;;;;8.18;5.15;;;10.50;97.30;;;;;;5087362;28;20675;-42
2022/05/05 05:45:12;;;;;;;9.45;5.47;;;10.50;97.30;;;;;;5104239;28;20130;-42
2022/05/05 05:47:38;;;;;;;7.20;5.00;;;10.40;97.40;;;;;;5104812;28;20030;-42
2022/05/05 05:50:04;;;;;;;8.55;5.47;;;10.40;97.40;;;;;;5084831;28;20064;-39
2022/05/05 05:52:30;;;;;;;11.57;5.38;;;10.50;97.50;;;;;;5084159;28;20437;-42
2022/05/05 05:54:56;;;;;;;8.93;5.00;;;10.50;97.50;;;;;;5093901;28;20036;-42
2022/05/05 05:57:21;;;;;;;10.32;5.50;;;10.50;97.60;;;;;;5083360;28;20024;-42
2022/05/05 05:59:47;;;;;;;9.55;5.50;;;10.50;97.60;;;;;;5096440;28;20058;-42
2022/05/05 06:04:57;;;;;;;9.23;5.40;;;10.50;97.60;;;;;;5097450;28;20517;-42
2022/05/05 06:07:22;;;;;;;8.65;5.55;;;10.50;97.60;;;;;;5085440;28;20028;-43
2022/05/05 06:09:48;;;;;;;8.90;5.85;;;10.60;97.60;;;;;;5095467;28;20180;-40
2022/05/05 06:12:16;;;;;;;8.30;5.55;;;10.60;97.70;;;;;;5086338;28;20353;-43
2022/05/05 06:14:41;;;;;;;6.90;5.57;;;10.60;97.70;;;;;;5093009;28;20375;-43
2022/05/05 06:17:07;;;;;;;8.30;5.30;;;10.70;97.70;;;;;;5089573;28;20118;-42
2022/05/05 06:19:33;;;;;;;9.48;5.45;;;10.70;97.70;;;;;;5090946;28;20057;-41
2022/05/05 06:21:59;;;;;;;6.78;5.20;;;10.80;97.70;;;;;;5097950;28;20074;-42
2022/05/05 06:24:24;;;;;;;9.40;6.35;;;10.80;97.70;;;;;;5093512;28;20043;-42
2022/05/05 06:26:50;;;;;;;9.60;5.75;;;10.90;97.70;;;;;;5101133;28;20139;-39
2022/05/05 06:29:15;;;;;;;8.20;6.32;;;11.00;97.70;;;;;;5093464;28;20463;-42
2022/05/05 06:31:41;;;;;;;11.30;6.50;;;11.00;97.70;;;;;;5103780;28;20016;-42
2022/05/05 06:34:09;;;;;;;9.07;6.43;;;11.10;97.80;;;;;;5093073;28;20399;-41
2022/05/05 06:36:35;;;;;;;10.82;6.82;;;11.10;97.80;;;;;;5103062;28;20027;-42
2022/05/05 06:39:00;;;;;;;11.27;6.95;;;11.20;97.90;;;;;;5092972;28;20069;-43
2022/05/05 06:41:28;;;;;;;10.20;6.68;;;11.20;97.80;;;;;;5098339;28;20035;-43
2022/05/05 06:43:54;;;;;;;10.48;7.00;;;11.30;97.80;;;;;;5112957;28;20039;-43
2022/05/05 06:46:19;;;;;;;11.52;7.80;;;11.30;97.80;;;;;;5099647;28;20039;-42
2022/05/05 06:48:45;;;;;;;8.60;6.68;;;11.40;97.80;;;;;;5112262;28;20053;-42
2022/05/05 06:51:11;;;;;;;10.75;7.20;;;11.40;97.80;;;;;;5100957;28;20020;-43
2022/05/05 06:53:36;;;;;;;12.70;7.35;;;11.50;97.80;;;;;;5110454;28;20084;-43
2022/05/05 06:56:02;;;;;;;16.15;8.02;;;11.60;97.80;;;;;;5103576;28;20075;-41
2022/05/05 06:58:28;;;;;;;8.50;6.75;;;11.60;97.80;;;;;;5107215;28;20058;-43
2022/05/05 07:03:38;;;;;;;9.95;6.80;;;11.70;97.80;;;;;;5108282;28;20039;-43
2022/05/05 07:06:03;;;;;;;11.93;6.65;;;11.80;97.80;;;;;;5107015;28;20024;-36
2022/05/05 07:11:20;;;;;;;10.32;7.30;;;12.00;97.70;;;;;;5106232;28;20534;-41
2022/05/05 07:13:45;;;;;;;13.00;7.20;;;12.20;97.60;;;;;;5106249;28;20024;-42
2022/05/05 07:16:11;;;;;;;12.63;7.38;;;12.40;97.50;;;;;;5108507;28;20532;-41
2022/05/05 07:18:37;;;;;;;8.90;6.68;;;12.60;97.30;;;;;;5103012;28;20520;-42
2022/05/05 07:21:03;;;;;;;12.82;6.75;;;12.80;97.20;;;;;;5111041;28;20153;-42
2022/05/05 07:23:28;;;;;;;10.52;6.50;;;13.00;97.10;;;;;;5100283;28;20027;-38
2022/05/05 07:25:54;;;;;;;13.10;7.38;;;13.20;97.00;;;;;;5111486;28;20027;-42
2022/05/05 07:28:19;;;;;;;13.07;7.13;;;13.30;96.90;;;;;;5099461;28;20042;-42
2022/05/05 07:30:45;;;;;;;11.02;6.78;;;13.50;96.80;;;;;;5110834;28;20149;-42
2022/05/05 07:33:11;;;;;;;9.98;7.28;;;13.60;96.70;;;;;;5094339;28;20128;-41
2022/05/05 07:35:38;;;;;;;14.52;7.05;;;13.80;96.70;;;;;;5107002;28;20684;-42
2022/05/05 07:38:10;;;;;;;11.65;6.65;;;13.90;96.50;;;;;;5095877;28;20127;-39
2022/05/05 07:40:36;;;;;;;13.10;6.85;;;14.10;96.40;;;;;;5108862;28;20024;-39
2022/05/05 07:43:02;;;;;;;9.65;6.45;;;14.30;96.20;;;;;;5096831;28;20039;-40
2022/05/05 07:45:27;;;;;;;12.35;7.22;;;14.50;96.10;;;;;;5107400;28;20375;-39
2022/05/05 07:47:53;;;;;;;12.02;7.15;;;14.70;96.00;;;;;;5099086;28;20063;-42
2022/05/05 07:50:18;;;;;;;10.32;7.00;;;14.90;95.90;;;;;;5094577;28;20058;-41
2022/05/05 07:52:44;;;;;;;9.57;6.82;;;15.10;95.70;;;;;;5094504;28;20024;-42
2022/05/05 07:55:10;;;;;;;11.15;7.00;;;15.20;95.50;;;;;;5094273;28;20031;-41
2022/05/05 07:57:43;;;;;;;11.13;6.90;;;15.30;95.40;;;;;;5090668;28;20027;-42
2022/05/05 08:00:11;;;;;;;12.80;8.27;;;15.50;95.30;;;;;;5095918;28;20044;-41
2022/05/05 08:02:37;;;;;;;9.77;7.25;;;15.60;95.20;;;;;;5089048;28;20029;-41
2022/05/05 08:05:02;;;;;;;9.77;7.28;;;15.70;95.10;;;;;;5096612;28;20498;-42
2022/05/05 08:07:28;;;;;;;14.27;7.78;;;15.80;95.00;;;;;;5087454;28;20034;-41
2022/05/05 08:09:53;;;;;;;10.20;6.95;;;15.90;94.90;;;;;;5098880;28;20035;-40
2022/05/05 08:12:19;;;;;;;10.50;5.95;;;16.00;94.70;;;;;;5087171;28;20119;-42
2022/05/05 08:14:44;;;;;;;10.40;6.82;;;16.10;94.60;;;;;;5099061;28;20050;-41
2022/05/05 08:17:10;;;;;;;15.15;7.53;;;16.20;94.40;;;;;;5088353;28;20099;-42
2022/05/05 08:19:35;;;;;;;8.57;5.70;;;16.20;94.20;;;;;;5099529;28;20030;-41
2022/05/05 08:22:01;;;;;;;7.03;5.55;;;16.30;94.10;;;;;;5088668;28;20535;-42
2022/05/05 08:30:10;;;;;;;6.53;4.65;;;16.40;93.50;;;;;;5018963;28;20065;-43
2022/05/05 08:32:36;;;;;;;5.82;4.10;;;16.40;93.30;;;;;;5108101;28;21042;-42
2022/05/05 08:35:04;;;;;;;7.30;5.22;;;16.50;93.20;;;;;;5095479;28;20032;-43
2022/05/05 08:37:29;;;;;;;10.18;5.88;;;16.50;93.10;;;;;;5107654;28;20073;-43
2022/05/05 08:39:55;;;;;;;8.20;6.05;;;16.60;92.80;;;;;;5096223;28;20085;-41
2022/05/05 08:42:24;;;;;;;10.00;5.82;;;16.70;92.60;;;;;;5105266;28;20036;-42
2022/05/05 08:44:49;;;;;;;11.90;6.32;;;16.70;92.40;;;;;;5098460;28;20035;-42
2022/05/05 08:47:16;;;;;;;11.98;5.72;;;16.70;92.40;;;;;;5104121;28;20031;-41
2022/05/05 08:49:43;;;;;;;8.85;4.78;;;16.80;92.30;;;;;;5103884;28;20023;-42
2022/05/05 08:52:11;;;;;;;7.70;5.72;;;16.80;92.30;;;;;;5107920;28;20497;-42
2022/05/05 08:54:40;;;;;;;7.97;5.68;;;16.80;92.10;;;;;;5101083;28;20050;-42
2022/05/05 08:57:09;;;;;;;6.65;4.75;;;16.90;91.90;;;;;;5094591;28;20035;-39
2022/05/05 08:59:34;;;;;;;10.52;5.25;;;17.00;91.90;;;;;;5089660;28;20058;-42
2022/05/05 09:02:00;;;;;;;8.77;5.05;;;17.10;91.90;;;;;;5096411;28;20078;-42
2022/05/05 09:04:25;;;;;;;8.85;5.55;;;17.20;91.80;;;;;;5088034;28;20090;-43
2022/05/05 09:06:53;;;;;;;11.18;5.68;;;17.30;91.60;;;;;;5098560;28;20047;-42
2022/05/05 09:09:35;;;;;;;9.15;5.78;;;17.40;91.50;;;;;;5087692;28;20093;-42
2022/05/05 09:12:09;;;;;;;9.02;5.80;;;17.40;91.30;;;;;;5098647;28;20032;-43
2022/05/05 09:14:48;;;;;;;8.73;5.63;;;17.50;91.20;;;;;;5086878;28;20027;-41
2022/05/05 09:17:22;;;;;;;8.10;4.90;;;17.60;91.00;;;;;;5098302;28;20047;-42
2022/05/05 09:19:49;;;;;;;7.25;5.05;;;17.60;90.90;;;;;;5088165;28;20032;-43
2022/05/05 09:22:18;;;;;;;7.47;5.10;;;17.70;90.90;;;;;;5097716;28;20032;-42
2022/05/05 09:24:49;;;;;;;6.70;5.47;;;17.80;90.80;;;;;;5086950;28;20550;-43
2022/05/05 09:27:20;;;;;;;7.50;5.75;;;17.80;90.60;;;;;;5094589;28;20024;-42
2022/05/05 09:30:06;;;;;;;9.27;6.13;;;17.90;90.60;;;;;;5086208;28;20052;-42
2022/05/05 09:32:47;;;;;;;8.50;5.95;;;18.00;90.60;;;;;;5094869;28;20047;-43
2022/05/05 09:35:17;;;;;;;12.43;6.57;;;18.10;90.50;;;;;;5087909;28;20138;-41
2022/05/05 09:37:52;;;;;;;8.30;6.47;;;18.20;90.40;;;;;;5097311;28;20024;-42
2022/05/05 09:40:24;;;;;;;9.35;6.35;;;18.30;90.30;;;;;;5087849;28;20032;-42
2022/05/05 09:42:51;;;;;;;7.70;6.40;;;18.30;90.20;;;;;;5094582;28;20416;-42
2022/05/05 09:45:49;;;;;;;13.98;7.72;;;18.30;90.00;;;;;;5086614;28;20073;-41
2022/05/05 09:48:16;;;;;;;11.38;7.45;;;18.40;89.90;;;;;;5097938;28;20024;-42
2022/05/05 09:50:42;;;;;;;9.52;6.53;;;18.40;89.90;;;;;;5094552;28;20043;-42
2022/05/05 10:02:04;;;;;;;9.65;6.95;;;18.60;89.10;;;;;;5061015;28;20040;-41
2022/05/05 10:04:33;;;;;;;8.77;6.47;;;18.70;89.10;;;;;;5099492;28;20080;-42
2022/05/05 10:07:02;;;;;;;10.27;7.85;;;18.70;88.90;;;;;;5102275;28;20036;-42
2022/05/05 10:09:28;;;;;;;8.85;6.40;;;18.70;88.80;;;;;;5097577;28;20028;-42
2022/05/05 10:11:54;;;;;;;10.38;8.15;;;18.80;88.90;;;;;;5103796;28;20015;-43
2022/05/05 10:14:20;;;;;;;10.43;8.10;;;18.80;88.40;;;;;;5095621;28;20031;-44
2022/05/05 10:16:46;;;;;;;10.50;7.93;;;18.80;88.30;;;;;;5104879;28;20043;-41
2022/05/05 10:19:15;;;;;;;12.10;8.35;;;18.80;88.10;;;;;;5094631;28;20375;-41
2022/05/05 10:21:52;;;;;;;15.55;9.52;;;18.80;88.30;;;;;;5104967;28;20063;-43
2022/05/05 10:24:40;;;;;;;9.93;7.85;;;18.90;87.70;;;;;;5095354;28;20024;-42
2022/05/05 10:27:05;;;;;;;10.95;8.35;;;18.90;87.60;;;;;;5086399;28;20019;-42
2022/05/05 10:29:31;;;;;;;15.43;9.65;;;19.00;87.70;;;;;;5096807;28;20020;-42
2022/05/05 10:32:22;;;;;;;11.85;8.70;;;19.10;87.50;;;;;;5086489;28;20554;-43
2022/05/05 10:35:10;;;;;;;15.93;10.63;;;19.20;87.30;;;;;;5095701;28;20032;-42
2022/05/05 10:37:39;;;;;;;12.55;8.35;;;19.30;87.10;;;;;;5087182;28;20104;-41
2022/05/05 10:40:12;;;;;;;11.48;8.13;;;19.30;87.30;;;;;;5083376;28;20037;-42
2022/05/05 10:42:41;;;;;;;12.65;9.07;;;19.30;87.20;;;;;;5104119;28;20531;-43
2022/05/05 10:45:20;;;;;;;13.25;9.95;;;19.40;87.10;;;;;;5094793;28;20058;-42
2022/05/05 10:47:58;;;;;;;10.68;9.23;;;19.30;87.10;;;;;;5104208;28;20082;-45
2022/05/05 10:50:56;;;;;;;15.07;11.10;;;19.30;87.00;;;;;;5087008;28;20077;-46
2022/05/05 10:53:42;;;;;;;12.93;8.75;;;19.30;86.60;;;;;;5088439;28;20032;-44
2022/05/05 10:56:19;;;;;;;12.73;9.77;;;19.30;86.80;;;;;;5092707;28;20051;-43
2022/05/05 10:59:08;;;;;;;13.55;9.95;;;19.40;86.90;;;;;;5090432;28;20016;-42
2022/05/05 11:01:42;;;;;;;12.57;9.82;;;19.50;86.70;;;;;;5089765;28;20032;-42
2022/05/05 11:04:17;;;;;;;12.93;9.10;;;19.50;86.60;;;;;;5091520;28;20020;-42
2022/05/05 11:06:44;;;;;;;13.07;10.18;;;19.60;86.40;;;;;;5092544;28;20027;-40
2022/05/05 11:09:27;;;;;;;12.30;9.98;;;19.60;85.90;;;;;;5094731;28;20102;-43
2022/05/05 11:12:16;;;;;;;10.13;7.57;;;19.60;86.20;;;;;;5094170;28;20096;-43
2022/05/05 11:23:49;;;;;;;8.23;6.63;;;19.80;86.20;;;;;;5089069;28;20142;-42
2022/05/05 11:26:16;;;;;;;9.27;6.60;;;19.90;86.10;;;;;;5100141;28;20491;-43
2022/05/05 11:28:42;;;;;;;9.18;7.20;;;20.10;86.00;;;;;;5088206;28;20421;-47
2022/05/05 11:31:22;;;;;;;7.95;6.38;;;20.20;85.00;;;;;;5096660;28;20480;-42
2022/05/05 11:33:54;;;;;;;9.98;7.45;;;20.30;85.10;;;;;;5109128;28;20059;-42
2022/05/05 11:36:20;;;;;;;10.32;6.75;;;20.30;84.90;;;;;;5099863;28;20038;-43
2022/05/05 11:38:46;;;;;;;8.57;5.88;;;20.40;85.00;;;;;;5088430;28;20078;-43
2022/05/05 11:41:17;;;;;;;8.35;5.50;;;20.40;85.00;;;;;;5101428;28;20039;-43
2022/05/05 11:46:27;;;;;;;11.02;7.97;;;20.60;84.60;;;;;;5100420;28;20074;-42
2022/05/05 11:48:57;;;;;;;10.15;6.75;;;20.60;84.30;;;;;;5089335;28;20036;-43
2022/05/05 11:51:23;;;;;;;8.27;6.30;;;20.70;84.20;;;;;;5099862;28;20027;-43
2022/05/05 11:53:49;;;;;;;10.50;7.47;;;20.70;84.20;;;;;;5088040;28;20024;-44
2022/05/05 11:56:15;;;;;;;9.30;6.80;;;20.70;83.90;;;;;;5097419;28;20039;-43
2022/05/05 12:01:41;;;;;;;6.70;5.70;;;20.70;82.90;;;;;;5097426;28;20092;-43
2022/05/05 12:04:09;;;;;;;12.18;7.43;;;20.80;83.00;;;;;;5088604;28;20036;-43
2022/05/05 12:06:37;;;;;;;7.68;6.63;;;20.80;82.80;;;;;;5096758;28;20761;-43
2022/05/05 12:09:04;;;;;;;7.60;5.90;;;20.90;82.90;;;;;;5090528;28;20365;-43
2022/05/05 12:11:29;;;;;;;10.43;7.28;;;20.90;82.90;;;;;;5094789;28;20059;-43
2022/05/05 12:14:06;;;;;;;8.85;7.50;;;21.00;82.50;;;;;;5093445;28;20511;-43
2022/05/05 12:16:36;;;;;;;10.05;7.78;;;21.00;82.20;;;;;;5093398;28;20217;-41
2022/05/05 12:19:12;;;;;;;9.60;7.40;;;21.10;81.70;;;;;;5092617;28;20522;-43
2022/05/05 12:21:54;;;;;;;9.07;6.97;;;21.10;81.80;;;;;;5093071;28;20428;-43
2022/05/05 12:24:22;;;;;;;9.23;7.22;;;21.10;82.10;;;;;;5092857;28;20144;-44
2022/05/05 12:26:48;;;;;;;10.65;6.95;;;21.10;81.80;;;;;;5093083;28;20032;-41
2022/05/05 12:29:15;;;;;;;8.02;6.65;;;21.20;81.90;;;;;;5094574;28;20089;-44
2022/05/05 12:31:58;;;;;;;7.43;5.38;;;21.20;81.30;;;;;;5089164;28;20040;-44
2022/05/05 12:34:27;;;;;;;6.15;5.18;;;21.30;81.10;;;;;;5094434;28;20154;-44
2022/05/05 12:37:28;;;;;;;5.60;4.82;;;21.40;80.90;;;;;;5091329;28;20040;-43
2022/05/05 12:40:01;;;;;;;6.28;5.05;;;21.40;80.70;;;;;;4988915;28;20382;-43
2022/05/05 12:42:46;;;;;;;8.40;6.35;;;21.50;80.70;;;;;;5077370;28;20035;-43
2022/05/05 12:45:24;;;;;;;6.60;5.90;;;21.60;79.70;;;;;;5090962;28;20067;-43
2022/05/05 12:47:51;;;;;;;7.40;6.07;;;21.60;79.90;;;;;;5095878;28;20513;-44
2022/05/05 12:50:46;;;;;;;6.25;4.93;;;21.60;79.90;;;;;;5095485;28;20031;-41
2022/05/05 13:01:44;;;;;;;6.80;5.65;;;21.80;78.90;;;;;;5086889;28;20556;-43
2022/05/05 13:04:14;;;;;;;6.40;4.95;;;21.90;78.80;;;;;;5099828;28;20572;-43
2022/05/05 13:06:41;;;;;;;6.82;5.57;;;21.90;78.70;;;;;;5087204;28;20032;-42
2022/05/05 13:09:08;;;;;;;8.05;6.15;;;21.90;77.90;;;;;;5099748;28;20036;-43
2022/05/05 13:11:42;;;;;;;6.28;5.00;;;22.00;77.80;;;;;;5086390;28;20039;-42
2022/05/05 13:14:08;;;;;;;7.05;5.00;;;22.10;77.40;;;;;;5098304;28;20467;-44
2022/05/05 13:16:38;;;;;;;6.80;5.65;;;22.20;77.40;;;;;;5086106;28;20604;-43
2022/05/05 13:19:05;;;;;;;7.78;6.00;;;22.30;77.20;;;;;;5096908;28;20355;-43
2022/05/05 13:21:36;;;;;;;6.75;5.78;;;22.40;76.70;;;;;;5088873;28;20047;-43
2022/05/05 13:24:01;;;;;;;8.70;5.82;;;22.40;76.60;;;;;;5095031;28;20039;-42
2022/05/05 13:26:27;;;;;;;6.22;4.97;;;22.30;76.30;;;;;;5090867;28;20031;-42
2022/05/05 13:28:53;;;;;;;5.75;4.43;;;22.30;76.50;;;;;;5091807;28;20023;-43
2022/05/05 13:31:18;;;;;;;6.82;5.68;;;22.30;76.80;;;;;;5093154;28;20058;-42
2022/05/05 13:33:44;;;;;;;6.22;5.63;;;22.30;76.90;;;;;;5089416;28;20460;-43
2022/05/05 13:36:10;;;;;;;7.05;6.28;;;22.40;76.50;;;;;;5095564;28;20346;-43
2022/05/05 13:38:37;;;;;;;6.18;5.53;;;22.40;76.50;;;;;;5087125;28;20020;-43
2022/05/05 13:41:03;;;;;;;7.32;5.82;;;22.40;76.80;;;;;;5097687;28;20024;-42
2022/05/05 13:43:32;;;;;;;5.50;4.80;;;22.30;76.80;;;;;;5087101;28;20020;-43
2022/05/05 13:45:57;;;;;;;5.40;4.90;;;22.20;77.00;;;;;;5097843;28;20823;-41